createdAt,value
2022-09-01T07:13:38.801Z,19.20
2022-09-01T07:18:59.021Z,19.50
2022-09-01T07:22:06.653Z,19.70
2022-09-01T07:24:18.171Z,19.90
2022-09-01T07:26:49.335Z,20.20
2022-09-01T07:29:17.483Z,20.40
2022-09-01T07:32:41.193Z,20.60
2022-09-01T07:34:39.765Z,20.80
2022-09-01T07:39:56.126Z,21.30
2022-09-01T07:45:28.521Z,21.60
2022-09-01T07:47:57.203Z,21.80
2022-09-01T07:51:07.591Z,21.90
2022-09-01T07:53:18.447Z,22.10
2022-09-01T07:55:51.324Z,22.20
2022-09-01T07:58:20.651Z,22.30
2022-09-01T08:00:49.169Z,22.40
2022-09-01T08:03:19.415Z,22.50
2022-09-01T08:05:51.303Z,22.60
2022-09-01T08:08:19.424Z,22.70
2022-09-01T08:10:48.878Z,22.80
2022-09-01T08:13:17.163Z,22.80
2022-09-01T08:16:07.265Z,22.90
2022-09-01T08:18:51.347Z,22.90
2022-09-01T08:21:22.209Z,23.00
2022-09-01T08:23:54.341Z,23.10
2022-09-01T08:26:24.016Z,23.10
2022-09-01T08:28:55.279Z,23.20
2022-09-01T08:31:23.571Z,23.30
2022-09-01T08:33:50.870Z,23.30
2022-09-01T08:36:23.063Z,23.40
2022-09-01T08:38:52.463Z,23.40
2022-09-01T08:41:46.879Z,23.40
2022-09-01T08:44:16.972Z,23.50
2022-09-01T08:46:44.729Z,23.50
2022-09-01T08:49:26.449Z,23.60
2022-09-01T08:52:12.136Z,23.70
2022-09-01T08:54:51.544Z,23.70
2022-09-01T08:57:23.502Z,23.70
2022-09-01T08:59:51.886Z,23.80
2022-09-01T09:02:43.579Z,23.80
2022-09-01T09:05:32.149Z,23.80
2022-09-01T09:08:18.509Z,23.80
2022-09-01T09:10:58.897Z,23.90
2022-09-01T09:13:47.119Z,23.90
2022-09-01T09:16:23.151Z,23.90
2022-09-01T09:18:55.831Z,24.00
2022-09-01T09:21:32.583Z,24.00
2022-09-01T09:24:21.720Z,24.00
2022-09-01T09:26:55.284Z,24.00
2022-09-01T09:29:23.197Z,24.10
2022-09-01T09:32:06.480Z,24.10
2022-09-01T09:34:37.310Z,24.10
2022-09-01T09:37:20.974Z,24.10
2022-09-01T09:40:10.416Z,24.10
2022-09-01T09:42:56.868Z,24.20
2022-09-01T09:45:26.839Z,24.20
2022-09-01T09:47:56.401Z,24.20
2022-09-01T09:50:34.351Z,24.20
2022-09-01T09:53:18.956Z,24.20
2022-09-01T09:55:56.283Z,24.20
2022-09-01T09:58:27.982Z,24.20
2022-09-01T10:01:06.669Z,24.30
2022-09-01T10:03:37.234Z,24.30
2022-09-01T10:06:04.810Z,24.30
2022-09-01T10:08:45.402Z,24.30
2022-09-01T10:11:31.313Z,24.30
2022-09-01T10:14:04.997Z,24.40
2022-09-01T10:16:35.198Z,24.30
2022-09-01T10:19:02.680Z,24.40
2022-09-01T10:21:35.377Z,24.40
2022-09-01T10:24:21.150Z,24.40
2022-09-01T10:26:53.053Z,24.40
2022-09-01T10:29:48.130Z,24.40
2022-09-01T10:32:38.622Z,24.40
2022-09-01T10:35:30.110Z,24.40
2022-09-01T10:38:06.938Z,24.50
2022-09-01T10:40:50.045Z,24.50
2022-09-01T10:43:30.659Z,24.40
2022-09-01T10:46:39.016Z,24.50
2022-09-01T10:49:30.204Z,24.40
2022-09-01T10:52:03.176Z,24.50
2022-09-01T10:54:50.305Z,24.50
2022-09-01T10:57:42.585Z,24.50
2022-09-01T11:00:40.448Z,24.50
2022-09-01T11:15:53.355Z,24.60
2022-09-01T11:18:30.778Z,24.40
2022-09-01T11:21:29.847Z,24.40
2022-09-01T11:24:34.542Z,24.50
2022-09-01T11:27:01.477Z,24.60
2022-09-01T11:29:58.446Z,24.60
2022-09-01T11:32:32.758Z,24.60
2022-09-01T11:35:02.593Z,24.60
2022-09-01T11:37:29.452Z,24.70
2022-09-01T12:24:24.580Z,24.90
2022-09-01T12:27:13.084Z,25.00
2022-09-01T12:29:40.836Z,24.90
2022-09-01T12:32:08.672Z,25.00
2022-09-01T12:34:47.632Z,25.00
2022-09-01T12:37:27.452Z,25.00
2022-09-01T12:39:59.410Z,25.00
2022-09-01T12:42:48.568Z,25.00
2022-09-01T12:45:40.770Z,25.00
2022-09-01T12:48:37.395Z,25.10
2022-09-01T12:51:30.947Z,25.10
2022-09-01T12:54:04.284Z,25.10
2022-09-01T12:56:39.075Z,25.10
2022-09-01T12:59:35.710Z,25.20
2022-09-01T13:02:49.813Z,25.20
2022-09-01T13:05:39.471Z,25.30
2022-09-01T13:08:18.301Z,25.30
2022-09-01T13:10:56.905Z,25.30
2022-09-01T13:13:26.489Z,25.30
2022-09-01T13:15:56.251Z,25.30
2022-09-01T13:18:27.249Z,25.40
2022-09-01T13:21:01.772Z,25.30
2022-09-01T13:23:33.579Z,25.40
2022-09-01T13:26:00.477Z,25.50
2022-09-01T13:28:27.677Z,25.50
2022-09-01T13:36:52.411Z,25.60
2022-09-01T13:39:22.840Z,25.70
2022-09-01T13:41:53.417Z,25.80
2022-09-01T13:44:21.908Z,25.80
2022-09-01T13:52:27.638Z,25.80
2022-09-01T13:54:57.174Z,25.90
2022-09-01T13:57:24.431Z,25.90
2022-09-01T13:59:55.472Z,25.90
2022-09-01T14:02:24.054Z,25.90
2022-09-01T14:04:53.104Z,25.90
2022-09-01T14:07:22.996Z,26.00
2022-09-01T14:09:52.619Z,26.00
2022-09-01T14:12:19.615Z,26.00
2022-09-01T14:17:38.438Z,26.00
2022-09-01T14:20:08.659Z,26.10
2022-09-01T14:22:40.296Z,26.10
2022-09-01T14:25:09.161Z,26.10
2022-09-01T14:27:38.277Z,26.20
2022-09-01T14:30:08.812Z,26.10
2022-09-01T14:32:36.417Z,26.10
2022-09-01T14:35:08.375Z,26.20
2022-09-01T14:37:38.864Z,26.20
2022-09-01T14:40:08.778Z,26.20
2022-09-01T14:42:41.652Z,26.20
2022-09-01T14:45:14.037Z,26.30
2022-09-01T14:47:41.087Z,26.30
2022-09-01T14:52:40.692Z,26.40
2022-09-01T14:55:13.670Z,26.40
2022-09-01T14:57:43.246Z,26.40
2022-09-01T15:00:13.788Z,26.40
2022-09-01T15:02:44.765Z,26.50
2022-09-01T15:05:13.029Z,26.50
2022-09-01T15:07:42.625Z,26.50
2022-09-01T15:10:11.810Z,26.60
2022-09-01T15:12:44.300Z,26.60
2022-09-01T15:15:14.044Z,26.70
2022-09-01T15:17:44.585Z,26.70
2022-09-01T15:20:32.079Z,26.80
2022-09-01T15:23:00.296Z,26.80
2022-09-01T15:25:28.461Z,26.80
2022-09-01T15:27:56.606Z,26.90
2022-09-01T15:30:23.570Z,26.90
2022-09-01T15:32:53.098Z,26.90
2022-09-01T15:35:30.779Z,27.00
2022-09-01T15:37:58.360Z,27.00
2022-09-01T15:40:26.841Z,27.00
2022-09-01T15:42:57.735Z,27.10
2022-09-01T15:45:27.465Z,27.10
2022-09-01T15:47:54.558Z,27.10
2022-09-01T15:50:25.714Z,27.20
2022-09-01T15:53:08.127Z,27.20
2022-09-01T15:55:47.255Z,27.20
2022-09-01T15:58:19.443Z,27.30
2022-09-01T16:00:48.439Z,27.30
2022-09-01T16:03:16.911Z,27.30
2022-09-01T16:05:45.801Z,27.30
2022-09-01T16:08:13.151Z,27.40
2022-09-01T16:10:42.379Z,27.40
2022-09-01T16:13:11.246Z,27.50
2022-09-01T16:16:05.043Z,27.40
2022-09-01T16:18:52.256Z,27.40
2022-09-01T16:21:26.083Z,27.50
2022-09-01T16:23:54.708Z,27.50
2022-09-01T16:26:23.739Z,27.50
2022-09-01T16:28:56.764Z,27.60
2022-09-01T16:31:30.785Z,27.70
2022-09-01T16:34:03.722Z,27.70
2022-09-01T16:36:31.157Z,27.70
2022-09-01T16:39:10.501Z,27.70
2022-09-01T16:41:55.089Z,27.60
2022-09-01T16:44:46.514Z,27.60
2022-09-01T16:47:58.897Z,27.60
2022-09-01T16:50:35.756Z,27.60
2022-09-01T16:53:43.251Z,27.60
2022-09-01T16:56:23.729Z,27.60
2022-09-01T16:59:17.508Z,27.60
2022-09-01T17:02:22.066Z,27.60
2022-09-01T17:05:22.414Z,27.60
2022-09-01T17:08:06.096Z,27.60
2022-09-01T17:10:58.452Z,27.60
2022-09-01T17:13:41.006Z,27.60
2022-09-01T17:16:17.541Z,27.70
2022-09-01T17:18:55.911Z,27.60
2022-09-01T17:21:37.041Z,27.60
2022-09-01T17:24:40.156Z,27.60
2022-09-01T17:27:22.009Z,27.60
2022-09-01T17:29:53.533Z,27.60
2022-09-01T17:32:39.994Z,27.60
2022-09-01T17:35:16.275Z,27.60
2022-09-01T17:38:05.694Z,27.60
2022-09-01T17:40:48.966Z,27.50
2022-09-01T17:43:34.272Z,27.50
2022-09-01T17:46:21.817Z,27.50
2022-09-01T17:49:04.309Z,27.50
2022-09-01T17:51:45.377Z,27.50
2022-09-01T17:54:33.949Z,27.50
2022-09-01T17:57:12.750Z,27.50
2022-09-01T17:59:57.773Z,27.40
2022-09-01T18:02:53.743Z,27.40
2022-09-01T18:05:24.460Z,27.40
2022-09-01T18:08:10.762Z,27.30
2022-09-01T18:10:47.451Z,27.30
2022-09-01T18:13:53.735Z,27.30
2022-09-01T18:16:31.423Z,27.20
2022-09-01T18:19:07.833Z,27.10
2022-09-01T18:21:48.810Z,27.00
2022-09-01T18:24:21.310Z,27.00
2022-09-01T18:26:51.004Z,27.00
2022-09-01T18:29:19.555Z,26.90
2022-09-01T18:32:20.762Z,26.90
2022-09-01T18:35:12.704Z,26.80
2022-09-01T18:37:48.657Z,26.80
2022-09-01T18:40:25.901Z,26.70
2022-09-01T18:43:00.567Z,26.80
2022-09-01T18:45:40.326Z,26.70
2022-09-01T18:48:32.729Z,26.70
2022-09-01T18:51:32.362Z,26.60
2022-09-01T18:54:09.243Z,26.60
2022-09-01T18:57:14.356Z,26.60
2022-09-01T18:59:50.807Z,26.50
2022-09-01T19:02:17.713Z,26.50
2022-09-01T19:04:50.605Z,26.50
2022-09-01T19:07:43.040Z,26.40
2022-09-01T19:10:18.383Z,26.50
2022-09-01T19:12:54.237Z,26.40
2022-09-01T19:15:51.090Z,26.40
2022-09-01T19:18:52.735Z,26.40
2022-09-01T19:21:27.800Z,26.40
2022-09-01T19:24:25.028Z,26.40
2022-09-01T19:27:07.330Z,26.30
2022-09-01T19:29:46.780Z,26.30
2022-09-01T19:32:18.635Z,26.30
2022-09-01T19:34:53.312Z,26.30
2022-09-01T19:37:25.821Z,26.20
2022-09-01T19:39:54.731Z,26.20
2022-09-01T19:42:57.913Z,26.20
2022-09-01T19:45:50.629Z,26.20
2022-09-01T19:48:24.568Z,26.20
2022-09-01T19:51:07.371Z,26.10
2022-09-01T19:54:01.592Z,26.10
2022-09-01T19:56:33.688Z,26.00
2022-09-01T19:59:01.834Z,26.00
2022-09-01T20:01:40.697Z,26.00
2022-09-01T20:04:27.841Z,26.00
2022-09-01T20:06:58.610Z,26.00
2022-09-01T20:09:37.150Z,25.90
2022-09-01T20:12:40.056Z,25.90
2022-09-01T20:15:52.336Z,25.90
2022-09-01T20:18:36.667Z,25.90
2022-09-01T20:21:09.263Z,25.80
2022-09-01T20:24:15.913Z,25.80
2022-09-01T20:26:51.924Z,25.80
2022-09-01T20:29:24.993Z,25.80
2022-09-01T20:31:56.679Z,25.70
2022-09-01T20:34:44.794Z,25.70
2022-09-01T20:37:46.815Z,25.70
2022-09-01T20:40:32.637Z,25.70
2022-09-01T20:43:24.907Z,25.70
2022-09-01T20:45:56.418Z,25.60
2022-09-01T20:48:25.927Z,25.60
2022-09-01T20:51:11.888Z,25.60
2022-09-01T20:54:12.558Z,25.60
2022-09-01T20:57:08.919Z,25.60
2022-09-01T20:59:54.839Z,25.60
2022-09-01T21:02:39.302Z,25.50
2022-09-01T21:05:30.303Z,25.50
2022-09-01T21:08:24.903Z,25.50
2022-09-01T21:11:10.808Z,25.40
2022-09-01T21:13:59.768Z,25.40
2022-09-01T21:16:34.716Z,25.40
2022-09-01T21:19:38.363Z,25.30
2022-09-01T21:22:21.176Z,25.30
2022-09-01T21:24:54.375Z,25.30
2022-09-01T21:27:28.606Z,25.30
2022-09-01T21:30:07.631Z,25.30
2022-09-01T21:32:38.259Z,25.30
2022-09-01T21:35:14.840Z,25.20
2022-09-01T21:37:42.622Z,25.20
2022-09-01T21:40:18.758Z,25.20
2022-09-01T21:43:03.807Z,25.10
2022-09-01T21:45:37.031Z,25.10
2022-09-01T21:48:06.704Z,25.10
2022-09-01T21:50:33.928Z,25.00
2022-09-01T21:53:03.495Z,25.00
2022-09-01T21:55:31.036Z,25.00
2022-09-01T21:57:58.562Z,25.00
2022-09-01T22:00:28.705Z,25.00
2022-09-01T22:03:01.735Z,24.90
2022-09-01T22:05:29.870Z,24.90
2022-09-01T22:07:58.964Z,24.90
2022-09-01T22:10:29.320Z,24.80
2022-09-01T22:12:59.385Z,24.80
2022-09-01T22:15:28.468Z,24.80
2022-09-01T22:17:57.609Z,24.80
2022-09-01T22:20:25.613Z,24.80
2022-09-01T22:23:01.873Z,24.80
2022-09-01T22:25:31.170Z,24.70
2022-09-01T22:28:00.179Z,24.70
2022-09-01T22:30:27.294Z,24.70
2022-09-01T22:32:56.965Z,24.70
2022-09-01T22:35:26.830Z,24.70
2022-09-01T22:37:54.197Z,24.60
2022-09-01T22:40:24.393Z,24.60
2022-09-01T22:42:53.891Z,24.60
2022-09-01T22:45:24.737Z,24.50
2022-09-01T22:47:51.597Z,24.50
2022-09-01T22:50:18.584Z,24.50
2022-09-01T22:52:48.708Z,24.50
2022-09-01T22:55:16.954Z,24.50
2022-09-01T22:57:43.798Z,24.40
2022-09-01T23:00:13.583Z,24.40
2022-09-01T23:02:40.587Z,24.40
2022-09-01T23:05:10.614Z,24.40
2022-09-01T23:07:41.766Z,24.30
2022-09-01T23:10:10.334Z,24.40
2022-09-01T23:12:39.657Z,24.30
2022-09-01T23:15:08.887Z,24.30
2022-09-01T23:17:40.211Z,24.30
2022-09-01T23:20:12.054Z,24.20
2022-09-01T23:22:41.394Z,24.20
2022-09-01T23:25:09.913Z,24.20
2022-09-01T23:27:37.065Z,24.20
2022-09-01T23:30:08.168Z,24.20
2022-09-01T23:32:35.234Z,24.20
2022-09-01T23:35:02.531Z,24.10
2022-09-01T23:37:33.739Z,24.10
2022-09-01T23:40:00.987Z,24.10
2022-09-01T23:42:27.819Z,24.00
2022-09-01T23:45:03.150Z,24.00
2022-09-01T23:47:32.285Z,24.00
2022-09-01T23:50:01.516Z,24.00
2022-09-01T23:52:29.778Z,23.90
2022-09-01T23:54:57.299Z,23.90
2022-09-01T23:57:26.621Z,23.80
2022-09-01T23:59:58.160Z,23.80
